Time;durP1;ratioP1;P1;durP2;ratioP2;P2;SDS_P1;SDS_P2;PMS_P1;PMS_P2;Temp;Humidity;BMP_temperature;BMP_pressure;BME280_temperature;BME280_humidity;BME280_pressure;Samples;Min_cycle;Max_cycle;Signal;HPM_P1;HPM_P2
2022/05/19 00:03:34;;;;;;;4.43;2.60;;;;;;;;;;5006051;28;20115;-81
2022/05/19 00:06:00;;;;;;;4.63;2.50;;;;;;;;;;4983040;28;20061;-80
2022/05/19 00:08:26;;;;;;;4.30;2.88;;;;;;;;;;4999207;28;20076;-80
2022/05/19 00:10:52;;;;;;;5.00;2.50;;;;;;;;;;5015250;28;20573;-81
2022/05/19 00:13:17;;;;;;;3.78;2.50;;;;;;;;;;4999075;28;20049;-81
2022/05/19 00:15:42;;;;;;;6.25;3.10;;;;;;;;;;5014834;28;20166;-81
2022/05/19 00:18:08;;;;;;;3.67;2.22;;;;;;;;;;4998911;28;20408;-81
2022/05/19 00:20:33;;;;;;;4.28;2.47;;;;;;;;;;4998989;28;20030;-81
2022/05/19 00:22:59;;;;;;;4.35;2.85;;;;;;;;;;5015178;28;20037;-81
2022/05/19 00:25:24;;;;;;;4.40;2.40;;;;;;;;;;5031216;28;20032;-80
2022/05/19 00:27:50;;;;;;;4.70;2.63;;;;;;;;;;5038203;28;20406;-81
2022/05/19 00:30:15;;;;;;;4.35;2.38;;;;;;;;;;5021546;28;20065;-82
2022/05/19 00:32:41;;;;;;;3.90;2.42;;;;;;;;;;5030621;28;20072;-81
2022/05/19 00:35:06;;;;;;;3.45;2.38;;;;;;;;;;5001486;28;20388;-81
2022/05/19 00:37:32;;;;;;;3.17;2.42;;;;;;;;;;5018242;28;20033;-81
2022/05/19 00:39:57;;;;;;;3.95;2.63;;;;;;;;;;5018142;28;20040;-81
2022/05/19 00:45:08;;;;;;;4.35;2.20;;;;;;;;;;5034015;28;20483;-81
2022/05/19 00:47:36;;;;;;;4.95;2.38;;;;;;;;;;5017778;28;20127;-81
2022/05/19 00:50:02;;;;;;;4.63;2.83;;;;;;;;;;5017850;28;20068;-81
2022/05/19 00:52:31;;;;;;;3.33;2.22;;;;;;;;;;5014508;28;20563;-82
2022/05/19 00:55:25;;;;;;;5.30;2.47;;;;;;;;;;5005957;28;20035;-81
2022/05/19 00:57:57;;;;;;;5.05;2.58;;;;;;;;;;5016481;28;20045;-81
2022/05/19 01:00:23;;;;;;;5.82;2.55;;;;;;;;;;5001114;28;20025;-81
2022/05/19 01:02:59;;;;;;;3.17;2.50;;;;;;;;;;5017482;28;20041;-81
2022/05/19 01:05:28;;;;;;;4.57;3.08;;;;;;;;;;4998706;28;20048;-81
2022/05/19 01:07:55;;;;;;;4.18;2.28;;;;;;;;;;4998669;28;20051;-81
2022/05/19 01:10:21;;;;;;;5.75;2.05;;;;;;;;;;5014010;28;20037;-81
2022/05/19 01:12:47;;;;;;;3.33;2.05;;;;;;;;;;4997924;28;20237;-81
2022/05/19 01:15:12;;;;;;;3.10;2.20;;;;;;;;;;4997265;28;20038;-81
2022/05/19 01:17:38;;;;;;;6.60;2.75;;;;;;;;;;4998017;28;20049;-81
2022/05/19 01:20:14;;;;;;;3.90;2.60;;;;;;;;;;4998033;28;20065;-81
2022/05/19 01:22:45;;;;;;;4.35;2.15;;;;;;;;;;4997541;28;20504;-81
2022/05/19 01:25:39;;;;;;;3.22;2.13;;;;;;;;;;5009932;28;20060;-81
2022/05/19 01:28:05;;;;;;;4.10;2.20;;;;;;;;;;5047878;28;20044;-81
2022/05/19 01:30:32;;;;;;;4.18;2.78;;;;;;;;;;5020862;28;20064;-81
2022/05/19 01:32:57;;;;;;;3.38;2.45;;;;;;;;;;5021859;28;20041;-81
2022/05/19 01:35:24;;;;;;;3.65;2.28;;;;;;;;;;5000947;28;20112;-81
2022/05/19 01:37:49;;;;;;;3.75;2.30;;;;;;;;;;5001041;28;20037;-81
2022/05/19 01:40:41;;;;;;;3.72;2.20;;;;;;;;;;5017264;28;20045;-81
2022/05/19 01:43:12;;;;;;;3.83;2.42;;;;;;;;;;5016894;28;20060;-81
2022/05/19 01:46:10;;;;;;;4.13;2.30;;;;;;;;;;5016797;28;20029;-83
2022/05/19 01:48:52;;;;;;;6.10;2.85;;;;;;;;;;5016969;28;20291;-82
2022/05/19 01:51:40;;;;;;;4.43;2.17;;;;;;;;;;5017234;28;20044;-82
2022/05/19 01:54:10;;;;;;;3.83;2.55;;;;;;;;;;5017262;28;20029;-83
2022/05/19 01:56:46;;;;;;;3.58;2.50;;;;;;;;;;5050655;28;20082;-82
2022/05/19 01:59:19;;;;;;;3.90;2.70;;;;;;;;;;5004738;28;20559;-82
2022/05/19 02:01:46;;;;;;;;;;;;;;;;;;4989736;28;20048;-83
2022/05/19 02:04:17;;;;;;;3.95;2.63;;;;;;;;;;5000152;28;20372;-82
2022/05/19 02:06:48;;;;;;;3.72;2.38;;;;;;;;;;4998235;28;20042;-82
2022/05/19 02:09:18;;;;;;;3.08;1.95;;;;;;;;;;4997527;28;20034;-82
2022/05/19 02:11:46;;;;;;;2.55;2.10;;;;;;;;;;5001351;28;20141;-82
2022/05/19 02:14:17;;;;;;;3.90;2.28;;;;;;;;;;4981124;28;20033;-82
2022/05/19 02:16:43;;;;;;;2.90;2.20;;;;;;;;;;4997466;28;20412;-82
2022/05/19 02:19:09;;;;;;;3.17;2.00;;;;;;;;;;4980610;28;20038;-82
2022/05/19 02:21:34;;;;;;;3.53;2.00;;;;;;;;;;4981162;28;20041;-82
2022/05/19 02:24:01;;;;;;;3.90;2.28;;;;;;;;;;5005340;28;20036;-83
2022/05/19 02:26:39;;;;;;;4.38;2.10;;;;;;;;;;5020536;28;20039;-83
2022/05/19 02:29:06;;;;;;;3.35;2.10;;;;;;;;;;5007757;28;20039;-83
2022/05/19 02:31:32;;;;;;;2.47;1.92;;;;;;;;;;5037553;28;20036;-82
2022/05/19 02:33:57;;;;;;;3.22;2.03;;;;;;;;;;5004272;28;20090;-82
2022/05/19 02:36:23;;;;;;;3.33;2.22;;;;;;;;;;5004432;28;20037;-82
2022/05/19 02:38:48;;;;;;;3.58;2.22;;;;;;;;;;5000880;28;20045;-82
2022/05/19 02:41:14;;;;;;;2.65;1.58;;;;;;;;;;5015052;28;20068;-82
2022/05/19 02:43:39;;;;;;;3.15;1.88;;;;;;;;;;4984455;28;20046;-82
2022/05/19 02:46:06;;;;;;;3.58;2.20;;;;;;;;;;4984161;28;20503;-82
2022/05/19 02:48:32;;;;;;;3.60;2.17;;;;;;;;;;4984320;28;20145;-82
2022/05/19 02:50:59;;;;;;;2.25;2.00;;;;;;;;;;5016844;28;20128;-82
2022/05/19 02:53:24;;;;;;;2.63;2.17;;;;;;;;;;5002056;28;20044;-82
2022/05/19 02:55:50;;;;;;;2.92;1.88;;;;;;;;;;5039526;28;20037;-82
2022/05/19 02:58:15;;;;;;;3.40;2.10;;;;;;;;;;5017775;28;20037;-82
2022/05/19 03:00:42;;;;;;;2.92;2.15;;;;;;;;;;5020169;28;20059;-83
2022/05/19 03:03:09;;;;;;;2.78;1.92;;;;;;;;;;5003369;28;20042;-82
2022/05/19 03:05:34;;;;;;;3.47;2.22;;;;;;;;;;4986206;28;20036;-82
2022/05/19 03:08:02;;;;;;;3.65;1.95;;;;;;;;;;5020187;28;20107;-85
2022/05/19 03:10:27;;;;;;;4.30;2.38;;;;;;;;;;5020494;28;20116;-86
2022/05/19 03:12:56;;;;;;;3.40;2.10;;;;;;;;;;5020586;28;20179;-86
2022/05/19 03:15:23;;;;;;;3.47;1.85;;;;;;;;;;5004116;28;20025;-87
2022/05/19 03:17:48;;;;;;;3.15;1.88;;;;;;;;;;5004422;28;20075;-87
2022/05/19 03:20:15;;;;;;;3.25;1.88;;;;;;;;;;5020918;28;20112;-87
2022/05/19 03:22:42;;;;;;;3.28;2.15;;;;;;;;;;5020726;28;20044;-87
2022/05/19 03:25:08;;;;;;;3.20;1.92;;;;;;;;;;5004116;28;20029;-86
2022/05/19 03:27:35;;;;;;;3.88;1.92;;;;;;;;;;5003824;28;20037;-85
2022/05/19 03:30:03;;;;;;;3.50;2.08;;;;;;;;;;5020778;28;20503;-87
2022/05/19 03:32:30;;;;;;;2.53;1.50;;;;;;;;;;5004288;28;20079;-87
2022/05/19 03:34:55;;;;;;;3.42;2.03;;;;;;;;;;5020660;28;20029;-87
2022/05/19 03:37:21;;;;;;;2.70;1.88;;;;;;;;;;5003702;28;20043;-87
2022/05/19 03:39:47;;;;;;;2.47;1.83;;;;;;;;;;5003263;28;20053;-87
2022/05/19 03:42:15;;;;;;;4.05;1.95;;;;;;;;;;5016583;28;20041;-85
2022/05/19 03:44:41;;;;;;;3.22;1.83;;;;;;;;;;5000335;28;20036;-87
2022/05/19 03:47:07;;;;;;;3.30;2.00;;;;;;;;;;5000199;28;20044;-87
2022/05/19 03:49:32;;;;;;;4.40;2.58;;;;;;;;;;5000336;28;20059;-87
2022/05/19 03:51:59;;;;;;;2.55;2.20;;;;;;;;;;4984501;28;20045;-86
2022/05/19 03:54:25;;;;;;;4.88;2.17;;;;;;;;;;5000192;28;20064;-87
2022/05/19 03:56:52;;;;;;;4.07;1.77;;;;;;;;;;5038430;28;20174;-87
2022/05/19 03:59:19;;;;;;;2.75;1.92;;;;;;;;;;5001493;28;20036;-86
2022/05/19 04:01:44;;;;;;;3.80;1.70;;;;;;;;;;4984163;28;20396;-87
2022/05/19 04:04:09;;;;;;;2.83;1.42;;;;;;;;;;4984061;28;20033;-89
2022/05/19 04:06:35;;;;;;;2.95;1.80;;;;;;;;;;5000777;28;20112;-88
2022/05/19 04:09:04;;;;;;;2.80;1.77;;;;;;;;;;5000481;28;20026;-88
2022/05/19 04:11:31;;;;;;;3.47;2.10;;;;;;;;;;5000576;28;20068;-87
2022/05/19 04:13:58;;;;;;;3.30;1.55;;;;;;;;;;5000323;28;20042;-88
2022/05/19 04:16:29;;;;;;;2.60;1.55;;;;;;;;;;5000506;28;20467;-86
2022/05/19 04:18:58;;;;;;;3.47;1.77;;;;;;;;;;4984076;28;20025;-87
2022/05/19 04:21:23;;;;;;;3.55;1.90;;;;;;;;;;4984453;28;20046;-88
2022/05/19 04:23:50;;;;;;;3.80;1.98;;;;;;;;;;5000039;28;20041;-87
2022/05/19 04:26:18;;;;;;;2.45;1.67;;;;;;;;;;4983951;28;20029;-87
2022/05/19 04:28:45;;;;;;;4.13;2.05;;;;;;;;;;5000251;28;20044;-87
2022/05/19 04:31:11;;;;;;;2.97;2.05;;;;;;;;;;5000165;28;20046;-87
2022/05/19 04:33:37;;;;;;;3.05;1.60;;;;;;;;;;5015398;28;20036;-88
2022/05/19 04:36:03;;;;;;;2.85;1.83;;;;;;;;;;4987448;28;20025;-87
2022/05/19 04:38:32;;;;;;;2.50;1.38;;;;;;;;;;5003072;28;20098;-87
2022/05/19 04:41:00;;;;;;;2.72;1.60;;;;;;;;;;5003313;28;20040;-87
2022/05/19 04:43:26;;;;;;;2.00;1.35;;;;;;;;;;5002935;28;20037;-88
2022/05/19 04:45:55;;;;;;;2.88;1.60;;;;;;;;;;5019236;28;20047;-88
2022/05/19 04:48:22;;;;;;;3.00;1.50;;;;;;;;;;5019584;28;20032;-87
2022/05/19 04:50:51;;;;;;;2.20;1.55;;;;;;;;;;5018057;28;20033;-88
2022/05/19 04:53:16;;;;;;;3.22;1.45;;;;;;;;;;5016675;28;20042;-88
2022/05/19 04:55:42;;;;;;;3.00;1.80;;;;;;;;;;4999908;28;20163;-88
2022/05/19 04:58:09;;;;;;;2.08;1.40;;;;;;;;;;5018868;28;20036;-88
2022/05/19 05:00:35;;;;;;;2.85;1.50;;;;;;;;;;5002868;28;20044;-88
2022/05/19 05:03:03;;;;;;;3.05;1.80;;;;;;;;;;5018793;28;20041;-87
2022/05/19 05:05:28;;;;;;;2.33;1.50;;;;;;;;;;4999185;28;20030;-84
2022/05/19 05:07:53;;;;;;;2.70;1.67;;;;;;;;;;4985597;28;20048;-86
2022/05/19 05:10:19;;;;;;;2.40;1.60;;;;;;;;;;5001639;28;20064;-84
2022/05/19 05:12:44;;;;;;;3.88;1.73;;;;;;;;;;5018382;28;20415;-83
2022/05/19 05:15:10;;;;;;;4.68;1.50;;;;;;;;;;5017954;28;20108;-84
2022/05/19 05:17:37;;;;;;;5.20;2.00;;;;;;;;;;5001285;28;20076;-84
2022/05/19 05:20:03;;;;;;;4.70;2.00;;;;;;;;;;5017570;28;20475;-84
2022/05/19 05:22:30;;;;;;;7.47;1.92;;;;;;;;;;5017942;28;20056;-85
2022/05/19 05:24:57;;;;;;;6.57;2.00;;;;;;;;;;5030579;28;20396;-87
2022/05/19 05:27:26;;;;;;;6.68;2.10;;;;;;;;;;5022049;28;20036;-89
2022/05/19 05:29:53;;;;;;;6.88;1.90;;;;;;;;;;5022227;28;20036;-87
2022/05/19 05:32:19;;;;;;;5.43;2.17;;;;;;;;;;5021770;28;20049;-87
2022/05/19 05:34:45;;;;;;;8.13;3.08;;;;;;;;;;5022021;28;20029;-88
2022/05/19 05:37:13;;;;;;;5.97;2.75;;;;;;;;;;5022033;28;20036;-87
2022/05/19 05:39:40;;;;;;;5.10;3.25;;;;;;;;;;5016909;28;20033;-87
2022/05/19 05:42:08;;;;;;;9.20;3.03;;;;;;;;;;5018643;28;20037;-88
2022/05/19 05:44:34;;;;;;;5.95;3.17;;;;;;;;;;5018593;28;20120;-88
2022/05/19 05:47:01;;;;;;;6.18;2.72;;;;;;;;;;5001748;28;20029;-89
2022/05/19 05:49:26;;;;;;;10.68;3.08;;;;;;;;;;5018260;28;20036;-88
2022/05/19 05:51:52;;;;;;;7.00;2.53;;;;;;;;;;5017826;28;20041;-88
2022/05/19 05:54:17;;;;;;;6.68;2.83;;;;;;;;;;5002102;28;20033;-89
2022/05/19 05:56:43;;;;;;;10.82;3.08;;;;;;;;;;5018272;28;20041;-88
2022/05/19 05:59:09;;;;;;;4.47;2.70;;;;;;;;;;5018466;28;20037;-88
2022/05/19 06:01:38;;;;;;;6.55;3.03;;;;;;;;;;5018686;28;20124;-86
2022/05/19 06:04:03;;;;;;;8.30;2.80;;;;;;;;;;5004974;28;20037;-86
2022/05/19 06:06:30;;;;;;;5.32;2.78;;;;;;;;;;5016820;28;20410;-86
2022/05/19 06:08:57;;;;;;;6.00;2.80;;;;;;;;;;5021928;28;20025;-88
2022/05/19 06:11:24;;;;;;;5.63;2.65;;;;;;;;;;4989767;28;20036;-86
2022/05/19 06:13:50;;;;;;;7.38;2.90;;;;;;;;;;5005948;28;20071;-87
2022/05/19 06:16:17;;;;;;;6.35;2.90;;;;;;;;;;4988774;28;20068;-87
2022/05/19 06:18:45;;;;;;;7.90;2.88;;;;;;;;;;4989035;28;20033;-87
2022/05/19 06:21:12;;;;;;;8.13;3.25;;;;;;;;;;5005556;28;20094;-87
2022/05/19 06:23:39;;;;;;;9.18;2.92;;;;;;;;;;5006919;28;20040;-87
2022/05/19 06:26:06;;;;;;;7.95;2.83;;;;;;;;;;5008735;28;20058;-86
2022/05/19 06:28:33;;;;;;;9.48;2.85;;;;;;;;;;5041343;28;20036;-87
2022/05/19 06:30:59;;;;;;;4.93;2.15;;;;;;;;;;5024775;28;20036;-87
2022/05/19 06:33:27;;;;;;;7.95;3.25;;;;;;;;;;5010923;28;20075;-87
2022/05/19 06:35:53;;;;;;;3.78;2.00;;;;;;;;;;5005278;28;20490;-88
2022/05/19 06:38:20;;;;;;;4.50;2.85;;;;;;;;;;5005027;28;20037;-87
2022/05/19 06:40:47;;;;;;;5.75;2.55;;;;;;;;;;5005743;28;20037;-87
2022/05/19 06:43:14;;;;;;;4.65;2.30;;;;;;;;;;5021400;28;20526;-87
2022/05/19 06:45:40;;;;;;;4.50;2.67;;;;;;;;;;5021454;28;20041;-87
2022/05/19 06:48:06;;;;;;;5.90;2.30;;;;;;;;;;5020777;28;20072;-86
2022/05/19 06:50:32;;;;;;;4.03;2.35;;;;;;;;;;5021390;28;20036;-86
2022/05/19 06:53:01;;;;;;;5.20;2.30;;;;;;;;;;5004721;28;20119;-87
2022/05/19 06:55:28;;;;;;;7.10;2.28;;;;;;;;;;5021625;28;20061;-86
2022/05/19 06:57:54;;;;;;;6.07;3.03;;;;;;;;;;5020785;28;20433;-86
2022/05/19 07:00:21;;;;;;;5.38;2.38;;;;;;;;;;5021183;28;20046;-87
2022/05/19 07:02:51;;;;;;;4.47;2.33;;;;;;;;;;5037313;28;20098;-87
2022/05/19 07:05:21;;;;;;;8.00;2.25;;;;;;;;;;5020542;28;20044;-88
2022/05/19 07:07:47;;;;;;;4.80;2.35;;;;;;;;;;5021498;28;20049;-88
2022/05/19 07:10:21;;;;;;;6.72;2.47;;;;;;;;;;5021103;28;20097;-88
2022/05/19 07:12:48;;;;;;;5.45;2.35;;;;;;;;;;5020376;28;20033;-88
2022/05/19 07:15:15;;;;;;;5.88;2.70;;;;;;;;;;5021107;28;20132;-87
2022/05/19 07:17:40;;;;;;;7.40;3.22;;;;;;;;;;5020422;28;20079;-87
2022/05/19 07:22:53;;;;;;;4.43;2.78;;;;;;;;;;5037055;28;20037;-86
2022/05/19 07:25:21;;;;;;;5.13;2.10;;;;;;;;;;5020234;28;20040;-86
2022/05/19 07:27:46;;;;;;;5.53;2.53;;;;;;;;;;5020392;28;20028;-87
2022/05/19 07:30:12;;;;;;;3.70;2.40;;;;;;;;;;5020121;28;20491;-87
2022/05/19 07:32:39;;;;;;;9.73;2.90;;;;;;;;;;5020420;28;20036;-87
2022/05/19 07:35:08;;;;;;;7.43;2.45;;;;;;;;;;4988363;28;20043;-87
2022/05/19 07:37:35;;;;;;;8.05;2.70;;;;;;;;;;4987820;28;20423;-86
2022/05/19 07:40:05;;;;;;;6.22;2.50;;;;;;;;;;5033154;28;20124;-86
2022/05/19 07:42:30;;;;;;;7.18;3.03;;;;;;;;;;5016354;28;20029;-85
2022/05/19 07:44:57;;;;;;;6.05;2.85;;;;;;;;;;5000192;28;20451;-87
2022/05/19 07:47:24;;;;;;;3.35;2.47;;;;;;;;;;5000705;28;20554;-86
2022/05/19 07:49:54;;;;;;;6.22;2.25;;;;;;;;;;5019893;28;20491;-86
2022/05/19 07:52:23;;;;;;;3.67;2.53;;;;;;;;;;4995097;28;20503;-86
2022/05/19 07:54:53;;;;;;;3.13;2.13;;;;;;;;;;5032628;28;20099;-87
2022/05/19 07:57:20;;;;;;;3.20;2.17;;;;;;;;;;4999931;28;20558;-87
2022/05/19 07:59:47;;;;;;;4.53;2.55;;;;;;;;;;5016485;28;20029;-87
2022/05/19 08:02:13;;;;;;;3.65;2.30;;;;;;;;;;4999805;28;20030;-87
2022/05/19 08:04:39;;;;;;;5.28;2.53;;;;;;;;;;4999774;28;20049;-87
2022/05/19 08:07:06;;;;;;;3.80;2.35;;;;;;;;;;5016073;28;20037;-86
2022/05/19 08:17:53;;;;;;;4.68;2.30;;;;;;;;;;5022039;28;20041;-87
2022/05/19 08:20:20;;;;;;;5.63;2.75;;;;;;;;;;5035865;28;20029;-87
2022/05/19 08:22:48;;;;;;;5.03;2.17;;;;;;;;;;5003016;28;20112;-86
2022/05/19 08:25:13;;;;;;;6.18;2.83;;;;;;;;;;5003936;28;20033;-87
2022/05/19 08:27:42;;;;;;;3.78;2.17;;;;;;;;;;4999560;28;20495;-86
2022/05/19 08:30:08;;;;;;;5.28;2.45;;;;;;;;;;5015550;28;20030;-85
2022/05/19 08:32:33;;;;;;;3.47;2.10;;;;;;;;;;5027137;28;20060;-86
2022/05/19 08:35:00;;;;;;;4.50;1.98;;;;;;;;;;5002732;28;20043;-87
2022/05/19 08:37:26;;;;;;;4.75;2.20;;;;;;;;;;4986465;28;20045;-86
2022/05/19 08:39:54;;;;;;;6.10;3.50;;;;;;;;;;5002448;28;20032;-86
2022/05/19 08:42:21;;;;;;;4.57;2.92;;;;;;;;;;5018958;28;20048;-87
2022/05/19 08:44:51;;;;;;;5.90;3.38;;;;;;;;;;5018496;28;20029;-87
2022/05/19 08:47:21;;;;;;;6.38;3.72;;;;;;;;;;5018381;28;20479;-86
2022/05/19 08:49:54;;;;;;;4.55;2.75;;;;;;;;;;4999116;28;20032;-86
2022/05/19 08:52:22;;;;;;;4.57;2.47;;;;;;;;;;5015430;28;20052;-86
2022/05/19 08:54:50;;;;;;;3.95;2.58;;;;;;;;;;4982781;28;20048;-87
2022/05/19 08:57:26;;;;;;;4.80;2.72;;;;;;;;;;4982313;28;20633;-86
2022/05/19 09:00:10;;;;;;;4.65;2.22;;;;;;;;;;5015212;28;20508;-86
2022/05/19 09:02:41;;;;;;;3.88;2.33;;;;;;;;;;4999400;28;20037;-86
2022/05/19 09:05:25;;;;;;;5.35;2.10;;;;;;;;;;4998732;28;20038;-86
2022/05/19 09:08:18;;;;;;;2.42;1.90;;;;;;;;;;4998580;28;20037;-86
2022/05/19 09:10:56;;;;;;;3.88;2.25;;;;;;;;;;5021372;28;20036;-86
2022/05/19 09:13:34;;;;;;;4.75;1.90;;;;;;;;;;5017873;28;20514;-86
2022/05/19 09:16:14;;;;;;;5.10;1.90;;;;;;;;;;5017665;28;20507;-86
2022/05/19 09:19:03;;;;;;;5.68;2.67;;;;;;;;;;5001742;28;20040;-86
2022/05/19 09:21:28;;;;;;;4.68;2.20;;;;;;;;;;4998314;28;20051;-86
2022/05/19 09:23:55;;;;;;;3.28;1.95;;;;;;;;;;5001700;28;20037;-87
2022/05/19 09:26:37;;;;;;;4.63;2.65;;;;;;;;;;5017819;28;20508;-86
2022/05/19 09:29:08;;;;;;;3.38;2.10;;;;;;;;;;5017970;28;20553;-87
2022/05/19 09:31:42;;;;;;;6.55;2.08;;;;;;;;;;5034598;28;20068;-87
2022/05/19 09:34:08;;;;;;;4.53;2.05;;;;;;;;;;5017738;28;20048;-86
2022/05/19 09:36:41;;;;;;;4.40;2.25;;;;;;;;;;5017426;28;20043;-86
2022/05/19 09:39:09;;;;;;;4.50;2.25;;;;;;;;;;5016846;28;20040;-85
2022/05/19 09:41:39;;;;;;;5.22;2.45;;;;;;;;;;5001334;28;20182;-86
2022/05/19 09:44:04;;;;;;;5.95;2.30;;;;;;;;;;5034149;28;20134;-86
2022/05/19 09:46:40;;;;;;;4.43;2.05;;;;;;;;;;5001106;28;20029;-86
2022/05/19 09:49:29;;;;;;;3.13;2.17;;;;;;;;;;5048857;28;20041;-86
2022/05/19 09:52:04;;;;;;;6.68;2.30;;;;;;;;;;5016455;28;20040;-87
2022/05/19 09:54:32;;;;;;;5.38;2.60;;;;;;;;;;5034449;28;20052;-86
2022/05/19 09:57:11;;;;;;;4.70;2.15;;;;;;;;;;4997644;28;20025;-86
2022/05/19 09:59:47;;;;;;;3.25;2.35;;;;;;;;;;4998796;28;20076;-86
2022/05/19 10:02:26;;;;;;;3.90;2.08;;;;;;;;;;4981757;28;20041;-85
2022/05/19 10:04:55;;;;;;;4.80;2.35;;;;;;;;;;5014103;28;20393;-85
2022/05/19 10:07:24;;;;;;;13.00;2.67;;;;;;;;;;4997452;28;20036;-86
2022/05/19 10:09:51;;;;;;;5.57;2.28;;;;;;;;;;4981795;28;20136;-86
2022/05/19 10:12:32;;;;;;;5.03;2.03;;;;;;;;;;5000136;28;20040;-86
2022/05/19 10:15:03;;;;;;;4.88;2.28;;;;;;;;;;5033271;28;20097;-86
2022/05/19 10:17:50;;;;;;;2.97;2.03;;;;;;;;;;5017652;28;20057;-86
2022/05/19 10:20:23;;;;;;;4.55;2.47;;;;;;;;;;5016120;28;20546;-86
2022/05/19 10:22:48;;;;;;;3.60;2.15;;;;;;;;;;5033687;28;20025;-86
2022/05/19 10:25:35;;;;;;;4.38;1.75;;;;;;;;;;5031792;28;20089;-85
2022/05/19 10:31:12;;;;;;;4.95;1.90;;;;;;;;;;5056321;28;20042;-86
2022/05/19 10:34:03;;;;;;;2.83;2.05;;;;;;;;;;4997365;28;20025;-86
2022/05/19 10:36:44;;;;;;;3.50;1.88;;;;;;;;;;5013765;28;20132;-86
2022/05/19 10:39:50;;;;;;;4.45;2.05;;;;;;;;;;5015075;28;20101;-87
2022/05/19 10:42:25;;;;;;;3.33;1.77;;;;;;;;;;5003666;28;20049;-86
2022/05/19 10:45:00;;;;;;;5.35;1.92;;;;;;;;;;4981805;28;20029;-86
2022/05/19 10:47:49;;;;;;;4.32;1.65;;;;;;;;;;5015996;28;20041;-85
2022/05/19 10:50:38;;;;;;;4.93;1.95;;;;;;;;;;5043018;28;20518;-85
2022/05/19 10:53:25;;;;;;;4.55;1.83;;;;;;;;;;5024995;28;20033;-84
2022/05/19 10:56:21;;;;;;;4.55;2.13;;;;;;;;;;5004033;28;20033;-88
2022/05/19 10:59:20;;;;;;;3.08;2.13;;;;;;;;;;5037196;28;20032;-89
2022/05/19 11:02:06;;;;;;;6.63;2.05;;;;;;;;;;5036908;28;20037;-87
2022/05/19 11:04:38;;;;;;;6.30;1.95;;;;;;;;;;5036763;28;20045;-85
2022/05/19 11:07:41;;;;;;;5.43;2.47;;;;;;;;;;5054769;28;20087;-85
2022/05/19 11:10:20;;;;;;;7.43;4.43;;;;;;;;;;5020304;28;20142;-87
2022/05/19 11:13:10;;;;;;;8.45;4.75;;;;;;;;;;5016877;28;20036;-86
2022/05/19 11:15:58;;;;;;;11.13;5.13;;;;;;;;;;5000358;28;20076;-85
2022/05/19 11:18:47;;;;;;;9.95;4.35;;;;;;;;;;5000257;28;20025;-85
2022/05/19 11:21:30;;;;;;;9.40;5.50;;;;;;;;;;5000532;28;20519;-87
2022/05/19 11:24:03;;;;;;;9.07;4.38;;;;;;;;;;5016679;28;20091;-86
2022/05/19 11:26:42;;;;;;;8.10;4.65;;;;;;;;;;5000848;28;20041;-89
2022/05/19 11:29:17;;;;;;;9.13;4.68;;;;;;;;;;5001062;28;20060;-86
2022/05/19 11:32:02;;;;;;;8.82;5.05;;;;;;;;;;5000627;28;20076;-87
2022/05/19 11:34:39;;;;;;;6.88;4.57;;;;;;;;;;5016047;28;20068;-86
2022/05/19 11:37:30;;;;;;;5.65;4.50;;;;;;;;;;5015920;28;20411;-86
2022/05/19 11:40:42;;;;;;;9.02;4.95;;;;;;;;;;5019747;28;20063;-85
2022/05/19 11:43:36;;;;;;;10.13;5.70;;;;;;;;;;5006397;28;20061;-86
2022/05/19 11:46:13;;;;;;;8.88;5.45;;;;;;;;;;4983634;28;20038;-86
2022/05/19 11:57:33;;;;;;;32.75;7.30;;;;;;;;;;5057720;28;20032;-82
2022/05/19 12:00:00;;;;;;;33.58;7.35;;;;;;;;;;5022031;28;20492;-83
2022/05/19 12:02:29;;;;;;;23.17;7.13;;;;;;;;;;5022148;28;20032;-83
2022/05/19 12:05:26;;;;;;;12.10;4.53;;;;;;;;;;5006273;28;20399;-83
2022/05/19 12:07:54;;;;;;;8.30;3.78;;;;;;;;;;5024320;28;20697;-84
2022/05/19 12:10:30;;;;;;;9.45;3.53;;;;;;;;;;5036021;28;20047;-82
2022/05/19 12:12:59;;;;;;;6.40;3.00;;;;;;;;;;4986299;28;20025;-82
2022/05/19 12:15:33;;;;;;;7.65;2.70;;;;;;;;;;4986171;28;20521;-81
2022/05/19 12:18:00;;;;;;;7.82;3.17;;;;;;;;;;5018532;28;20040;-82
2022/05/19 12:20:53;;;;;;;5.97;1.98;;;;;;;;;;5034745;28;20154;-80
2022/05/19 12:23:29;;;;;;;7.15;1.98;;;;;;;;;;5000182;28;20431;-81
2022/05/19 12:25:59;;;;;;;5.75;1.77;;;;;;;;;;5018585;28;20037;-82
2022/05/19 12:28:33;;;;;;;5.00;1.70;;;;;;;;;;5034480;28;20171;-82
2022/05/19 12:33:56;;;;;;;7.03;1.55;;;;;;;;;;5048142;28;20037;-82
2022/05/19 12:36:34;;;;;;;4.40;1.60;;;;;;;;;;4985700;28;20045;-83
2022/05/19 12:39:18;;;;;;;2.83;1.02;;;;;;;;;;5018277;28;20455;-81
2022/05/19 12:41:49;;;;;;;3.50;1.00;;;;;;;;;;5007587;28;20029;-81
2022/05/19 12:44:50;;;;;;;5.05;1.25;;;;;;;;;;5050685;28;20037;-81
2022/05/19 12:47:15;;;;;;;2.22;0.90;;;;;;;;;;5019595;28;20135;-82
2022/05/19 12:50:10;;;;;;;6.22;1.50;;;;;;;;;;5050713;28;20124;-82
2022/05/19 12:52:57;;;;;;;4.45;1.42;;;;;;;;;;5041883;28;20045;-82
2022/05/19 12:55:22;;;;;;;2.40;0.80;;;;;;;;;;5041659;28;20082;-82
2022/05/19 12:57:50;;;;;;;3.55;1.25;;;;;;;;;;5054238;28;20071;-82
2022/05/19 13:00:19;;;;;;;9.77;1.90;;;;;;;;;;5004766;28;20409;-82
2022/05/19 13:03:17;;;;;;;2.58;1.13;;;;;;;;;;5020996;28;20040;-82
2022/05/19 13:05:57;;;;;;;4.00;1.23;;;;;;;;;;5037425;28;20089;-82
2022/05/19 13:09:00;;;;;;;2.67;1.25;;;;;;;;;;5038225;28;20040;-83
2022/05/19 13:11:31;;;;;;;5.18;1.67;;;;;;;;;;4992895;28;20044;-83
2022/05/19 13:14:01;;;;;;;4.95;1.30;;;;;;;;;;4991283;28;20060;-83
2022/05/19 13:16:30;;;;;;;6.05;1.30;;;;;;;;;;4981322;28;20030;-83
2022/05/19 13:19:00;;;;;;;5.93;1.35;;;;;;;;;;4997593;28;20458;-83
2022/05/19 13:21:35;;;;;;;2.30;1.10;;;;;;;;;;4998294;28;20046;-85
2022/05/19 13:24:09;;;;;;;5.25;1.10;;;;;;;;;;5007923;28;20046;-83
2022/05/19 13:26:40;;;;;;;2.67;0.93;;;;;;;;;;5021898;28;20044;-83
2022/05/19 13:32:11;;;;;;;3.25;1.38;;;;;;;;;;5035961;28;20518;-83
2022/05/19 13:34:50;;;;;;;2.38;1.23;;;;;;;;;;5035219;28;20072;-83
2022/05/19 13:37:29;;;;;;;3.05;1.40;;;;;;;;;;5001209;28;20033;-82
2022/05/19 13:40:09;;;;;;;3.58;1.08;;;;;;;;;;5017534;28;20049;-83
2022/05/19 13:42:36;;;;;;;3.35;1.23;;;;;;;;;;5000796;28;20423;-83
2022/05/19 13:45:01;;;;;;;3.17;1.38;;;;;;;;;;5016893;28;20056;-82
2022/05/19 13:47:27;;;;;;;2.08;1.10;;;;;;;;;;5016768;28;20048;-82
2022/05/19 13:50:07;;;;;;;3.38;1.20;;;;;;;;;;5017029;28;20120;-83
2022/05/19 13:52:35;;;;;;;2.50;1.08;;;;;;;;;;4984970;28;20044;-81
2022/05/19 13:55:00;;;;;;;3.60;1.60;;;;;;;;;;5020562;28;20398;-81
2022/05/19 13:57:28;;;;;;;9.38;1.92;;;;;;;;;;5020372;28;20029;-82
2022/05/19 13:59:59;;;;;;;3.15;1.45;;;;;;;;;;5020636;28;20036;-82
2022/05/19 14:02:36;;;;;;;8.15;2.33;;;;;;;;;;5036614;28;20036;-82
2022/05/19 14:05:07;;;;;;;3.67;1.58;;;;;;;;;;5020261;28;20131;-82
2022/05/19 14:07:33;;;;;;;3.45;1.63;;;;;;;;;;5037219;28;20040;-82
2022/05/19 14:10:05;;;;;;;7.90;1.60;;;;;;;;;;5036747;28;20506;-82
2022/05/19 14:12:49;;;;;;;4.63;1.52;;;;;;;;;;5011728;28;20041;-82
2022/05/19 14:15:15;;;;;;;2.88;1.25;;;;;;;;;;4981967;28;20045;-82
2022/05/19 14:17:48;;;;;;;3.95;1.58;;;;;;;;;;5013467;28;20069;-82
2022/05/19 14:20:19;;;;;;;4.15;1.42;;;;;;;;;;4997633;28;20043;-82
2022/05/19 14:22:46;;;;;;;3.33;1.50;;;;;;;;;;4998458;28;20048;-83
2022/05/19 14:25:12;;;;;;;2.47;1.13;;;;;;;;;;5012520;28;20049;-81
2022/05/19 14:27:38;;;;;;;4.18;1.05;;;;;;;;;;5017321;28;20057;-81
2022/05/19 14:30:16;;;;;;;2.45;0.82;;;;;;;;;;5017503;28;20045;-82
2022/05/19 14:32:56;;;;;;;4.80;1.40;;;;;;;;;;5020129;28;20048;-80
2022/05/19 14:35:24;;;;;;;2.95;1.15;;;;;;;;;;5036746;28;20554;-81
2022/05/19 14:38:02;;;;;;;3.70;1.02;;;;;;;;;;5020680;28;20067;-81
2022/05/19 14:43:17;;;;;;;4.70;1.60;;;;;;;;;;5022768;28;20072;-81
2022/05/19 14:46:04;;;;;;;6.97;3.10;;;;;;;;;;5036196;28;20044;-84
2022/05/19 14:48:35;;;;;;;11.95;6.68;;;;;;;;;;5003124;28;20049;-82
2022/05/19 14:51:01;;;;;;;8.77;5.35;;;;;;;;;;5004111;28;20037;-83
2022/05/19 14:53:26;;;;;;;6.47;3.53;;;;;;;;;;5003513;28;20056;-82
2022/05/19 14:56:02;;;;;;;8.90;4.45;;;;;;;;;;5007353;28;20032;-83
2022/05/19 14:58:54;;;;;;;8.52;4.47;;;;;;;;;;5023608;28;20044;-82
2022/05/19 15:01:20;;;;;;;;;;;;;;;;;;5033247;28;20063;-82
2022/05/19 15:03:45;;;;;;;10.65;5.40;;;;;;;;;;5056262;28;19916;-82
2022/05/19 15:06:11;;;;;;;9.13;4.25;;;;;;;;;;5056454;28;20123;-83
2022/05/19 15:08:36;;;;;;;11.02;5.47;;;;;;;;;;5023040;28;20040;-82
2022/05/19 15:11:02;;;;;;;5.18;2.47;;;;;;;;;;5039687;28;20059;-82
2022/05/19 15:13:27;;;;;;;4.75;2.40;;;;;;;;;;5006448;28;20078;-82
2022/05/19 15:15:53;;;;;;;4.95;1.98;;;;;;;;;;5019008;28;20041;-83
2022/05/19 15:18:19;;;;;;;3.90;2.05;;;;;;;;;;5036361;28;20041;-82
2022/05/19 15:20:45;;;;;;;3.40;1.85;;;;;;;;;;5020080;28;20036;-82
2022/05/19 15:23:11;;;;;;;3.85;1.98;;;;;;;;;;5036283;28;20029;-83
2022/05/19 15:25:37;;;;;;;4.95;1.88;;;;;;;;;;5016416;28;20052;-83
2022/05/19 15:28:03;;;;;;;3.08;1.67;;;;;;;;;;5015857;28;20133;-82
2022/05/19 15:30:30;;;;;;;2.80;1.77;;;;;;;;;;5032572;28;20423;-82
2022/05/19 15:32:55;;;;;;;2.70;1.50;;;;;;;;;;5030418;28;20033;-83
2022/05/19 15:35:21;;;;;;;2.72;1.67;;;;;;;;;;5002624;28;20047;-82
2022/05/19 15:37:46;;;;;;;4.65;2.20;;;;;;;;;;5019834;28;20036;-82
2022/05/19 15:40:14;;;;;;;3.00;1.77;;;;;;;;;;5002990;28;20127;-83
2022/05/19 15:42:39;;;;;;;2.75;1.48;;;;;;;;;;5002622;28;20067;-82